sensor_id;sensor_type;location;lat;lon;timestamp;P1;durP1;ratioP1;P2;durP2;ratioP2
28311;SDS011;15572;48.810;9.148;2023-04-24T00:00:41;2.37;;;1.00;;
28311;SDS011;15572;48.810;9.148;2023-04-24T00:05:40;2.57;;;0.87;;
28311;SDS011;15572;48.810;9.148;2023-04-24T00:10:38;0.90;;;0.90;;
28311;SDS011;15572;48.810;9.148;2023-04-24T00:15:34;1.10;;;0.90;;
28311;SDS011;15572;48.810;9.148;2023-04-24T00:20:31;2.13;;;0.90;;
28311;SDS011;15572;48.810;9.148;2023-04-24T00:25:28;1.50;;;0.80;;
28311;SDS011;15572;48.810;9.148;2023-04-24T00:30:26;1.43;;;0.80;;
28311;SDS011;15572;48.810;9.148;2023-04-24T00:35:22;1.03;;;0.90;;
28311;SDS011;15572;48.810;9.148;2023-04-24T00:40:19;1.37;;;0.90;;
28311;SDS011;15572;48.810;9.148;2023-04-24T00:45:15;1.60;;;0.77;;
28311;SDS011;15572;48.810;9.148;2023-04-24T00:50:14;1.53;;;0.70;;
28311;SDS011;15572;48.810;9.148;2023-04-24T00:55:11;2.07;;;0.67;;
28311;SDS011;15572;48.810;9.148;2023-04-24T01:00:08;1.73;;;0.90;;
28311;SDS011;15572;48.810;9.148;2023-04-24T01:05:07;2.10;;;0.70;;
28311;SDS011;15572;48.810;9.148;2023-04-24T01:10:06;0.77;;;0.73;;
28311;SDS011;15572;48.810;9.148;2023-04-24T01:15:04;2.27;;;0.80;;
28311;SDS011;15572;48.810;9.148;2023-04-24T01:20:01;1.20;;;0.77;;
28311;SDS011;15572;48.810;9.148;2023-04-24T01:25:02;1.27;;;0.80;;
28311;SDS011;15572;48.810;9.148;2023-04-24T01:30:00;1.90;;;1.00;;
28311;SDS011;15572;48.810;9.148;2023-04-24T01:34:56;0.70;;;0.70;;
28311;SDS011;15572;48.810;9.148;2023-04-24T01:39:53;2.20;;;0.80;;
28311;SDS011;15572;48.810;9.148;2023-04-24T01:44:51;1.43;;;0.80;;
28311;SDS011;15572;48.810;9.148;2023-04-24T01:49:48;3.47;;;0.97;;
28311;SDS011;15572;48.810;9.148;2023-04-24T01:54:46;2.30;;;0.90;;
28311;SDS011;15572;48.810;9.148;2023-04-24T01:59:42;0.70;;;0.70;;
28311;SDS011;15572;48.810;9.148;2023-04-24T02:04:40;1.70;;;0.87;;
28311;SDS011;15572;48.810;9.148;2023-04-24T02:09:37;1.80;;;0.90;;
28311;SDS011;15572;48.810;9.148;2023-04-24T02:14:33;1.10;;;0.87;;
28311;SDS011;15572;48.810;9.148;2023-04-24T02:19:30;1.03;;;0.87;;
28311;SDS011;15572;48.810;9.148;2023-04-24T02:24:28;1.90;;;1.00;;
28311;SDS011;15572;48.810;9.148;2023-04-24T02:29:24;1.27;;;0.90;;
28311;SDS011;15572;48.810;9.148;2023-04-24T02:34:21;1.37;;;0.80;;
28311;SDS011;15572;48.810;9.148;2023-04-24T02:39:18;3.43;;;0.90;;
28311;SDS011;15572;48.810;9.148;2023-04-24T02:44:15;1.33;;;0.80;;
28311;SDS011;15572;48.810;9.148;2023-04-24T02:49:12;1.53;;;1.10;;
28311;SDS011;15572;48.810;9.148;2023-04-24T02:54:09;1.67;;;1.00;;
28311;SDS011;15572;48.810;9.148;2023-04-24T02:59:05;1.83;;;1.10;;
28311;SDS011;15572;48.810;9.148;2023-04-24T03:04:03;2.30;;;0.83;;
28311;SDS011;15572;48.810;9.148;2023-04-24T03:09:00;2.50;;;1.20;;
28311;SDS011;15572;48.810;9.148;2023-04-24T03:13:57;1.93;;;1.00;;
28311;SDS011;15572;48.810;9.148;2023-04-24T03:18:53;2.10;;;1.10;;
28311;SDS011;15572;48.810;9.148;2023-04-24T03:23:51;2.00;;;1.00;;
28311;SDS011;15572;48.810;9.148;2023-04-24T03:28:48;2.80;;;0.83;;
28311;SDS011;15572;48.810;9.148;2023-04-24T03:33:44;3.67;;;1.00;;
28311;SDS011;15572;48.810;9.148;2023-04-24T03:38:41;2.23;;;1.10;;
28311;SDS011;15572;48.810;9.148;2023-04-24T03:43:38;3.40;;;1.00;;
28311;SDS011;15572;48.810;9.148;2023-04-24T03:48:35;1.77;;;1.00;;
28311;SDS011;15572;48.810;9.148;2023-04-24T03:53:31;5.30;;;1.00;;
28311;SDS011;15572;48.810;9.148;2023-04-24T03:58:28;1.57;;;1.10;;
28311;SDS011;15572;48.810;9.148;2023-04-24T04:03:25;1.07;;;1.00;;
28311;SDS011;15572;48.810;9.148;2023-04-24T04:08:22;2.30;;;0.90;;
28311;SDS011;15572;48.810;9.148;2023-04-24T04:13:18;1.90;;;0.63;;
28311;SDS011;15572;48.810;9.148;2023-04-24T04:18:15;1.33;;;0.87;;
28311;SDS011;15572;48.810;9.148;2023-04-24T04:23:13;1.43;;;0.73;;
28311;SDS011;15572;48.810;9.148;2023-04-24T04:28:09;3.40;;;1.13;;
28311;SDS011;15572;48.810;9.148;2023-04-24T04:33:06;1.33;;;0.83;;
28311;SDS011;15572;48.810;9.148;2023-04-24T04:38:03;1.20;;;1.10;;
28311;SDS011;15572;48.810;9.148;2023-04-24T04:43:01;2.00;;;1.40;;
28311;SDS011;15572;48.810;9.148;2023-04-24T04:47:57;2.13;;;1.00;;
28311;SDS011;15572;48.810;9.148;2023-04-24T04:52:55;1.93;;;1.37;;
28311;SDS011;15572;48.810;9.148;2023-04-24T04:57:52;1.60;;;1.30;;
28311;SDS011;15572;48.810;9.148;2023-04-24T05:02:49;1.30;;;1.20;;
28311;SDS011;15572;48.810;9.148;2023-04-24T05:07:46;1.83;;;1.13;;
28311;SDS011;15572;48.810;9.148;2023-04-24T05:12:42;2.17;;;1.07;;
28311;SDS011;15572;48.810;9.148;2023-04-24T05:17:39;1.30;;;1.10;;
28311;SDS011;15572;48.810;9.148;2023-04-24T05:22:37;1.60;;;1.03;;
28311;SDS011;15572;48.810;9.148;2023-04-24T05:27:33;1.30;;;1.20;;
28311;SDS011;15572;48.810;9.148;2023-04-24T05:32:30;1.30;;;1.20;;
28311;SDS011;15572;48.810;9.148;2023-04-24T05:37:26;3.67;;;1.40;;
28311;SDS011;15572;48.810;9.148;2023-04-24T05:42:24;1.83;;;1.50;;
28311;SDS011;15572;48.810;9.148;2023-04-24T05:47:21;1.20;;;1.10;;
28311;SDS011;15572;48.810;9.148;2023-04-24T05:52:17;1.47;;;1.37;;
28311;SDS011;15572;48.810;9.148;2023-04-24T05:57:14;1.87;;;1.33;;
28311;SDS011;15572;48.810;9.148;2023-04-24T06:02:12;1.93;;;1.40;;
28311;SDS011;15572;48.810;9.148;2023-04-24T06:07:08;1.50;;;1.40;;
28311;SDS011;15572;48.810;9.148;2023-04-24T06:12:06;2.37;;;1.60;;
28311;SDS011;15572;48.810;9.148;2023-04-24T06:17:03;3.73;;;1.70;;
28311;SDS011;15572;48.810;9.148;2023-04-24T06:22:02;1.87;;;1.63;;
28311;SDS011;15572;48.810;9.148;2023-04-24T06:26:58;2.97;;;1.67;;
28311;SDS011;15572;48.810;9.148;2023-04-24T06:31:56;1.70;;;1.57;;
28311;SDS011;15572;48.810;9.148;2023-04-24T06:36:52;3.10;;;1.50;;
28311;SDS011;15572;48.810;9.148;2023-04-24T06:41:51;1.80;;;1.50;;
28311;SDS011;15572;48.810;9.148;2023-04-24T06:46:47;2.70;;;1.50;;
28311;SDS011;15572;48.810;9.148;2023-04-24T06:51:44;4.50;;;1.90;;
28311;SDS011;15572;48.810;9.148;2023-04-24T06:56:40;1.80;;;1.20;;
28311;SDS011;15572;48.810;9.148;2023-04-24T07:01:38;2.23;;;1.87;;
28311;SDS011;15572;48.810;9.148;2023-04-24T07:06:35;2.50;;;1.80;;
28311;SDS011;15572;48.810;9.148;2023-04-24T07:11:32;5.57;;;2.00;;
28311;SDS011;15572;48.810;9.148;2023-04-24T07:16:29;2.97;;;1.60;;
28311;SDS011;15572;48.810;9.148;2023-04-24T07:21:27;3.43;;;1.70;;
28311;SDS011;15572;48.810;9.148;2023-04-24T07:26:23;1.90;;;1.60;;
28311;SDS011;15572;48.810;9.148;2023-04-24T07:31:20;2.30;;;1.50;;
28311;SDS011;15572;48.810;9.148;2023-04-24T07:36:16;2.73;;;1.67;;
28311;SDS011;15572;48.810;9.148;2023-04-24T07:41:15;2.10;;;1.50;;
28311;SDS011;15572;48.810;9.148;2023-04-24T07:46:11;2.43;;;1.47;;
28311;SDS011;15572;48.810;9.148;2023-04-24T07:51:08;2.17;;;1.20;;
28311;SDS011;15572;48.810;9.148;2023-04-24T07:56:06;1.30;;;1.20;;
28311;SDS011;15572;48.810;9.148;2023-04-24T08:01:03;2.00;;;1.53;;
28311;SDS011;15572;48.810;9.148;2023-04-24T08:06:00;1.80;;;1.13;;
28311;SDS011;15572;48.810;9.148;2023-04-24T08:10:57;0.87;;;0.87;;
28311;SDS011;15572;48.810;9.148;2023-04-24T08:15:53;2.17;;;1.20;;
28311;SDS011;15572;48.810;9.148;2023-04-24T08:20:51;1.50;;;0.90;;
28311;SDS011;15572;48.810;9.148;2023-04-24T08:25:48;1.83;;;1.23;;
28311;SDS011;15572;48.810;9.148;2023-04-24T08:30:44;1.03;;;0.90;;
28311;SDS011;15572;48.810;9.148;2023-04-24T08:35:41;2.57;;;1.17;;
28311;SDS011;15572;48.810;9.148;2023-04-24T08:40:39;1.90;;;1.37;;
28311;SDS011;15572;48.810;9.148;2023-04-24T08:45:36;3.20;;;1.30;;
28311;SDS011;15572;48.810;9.148;2023-04-24T08:50:33;1.07;;;0.97;;
28311;SDS011;15572;48.810;9.148;2023-04-24T08:55:30;2.33;;;1.20;;
28311;SDS011;15572;48.810;9.148;2023-04-24T09:00:30;1.63;;;1.20;;
28311;SDS011;15572;48.810;9.148;2023-04-24T09:05:27;2.70;;;1.30;;
28311;SDS011;15572;48.810;9.148;2023-04-24T09:10:25;1.37;;;1.27;;
28311;SDS011;15572;48.810;9.148;2023-04-24T09:15:23;1.57;;;1.47;;
28311;SDS011;15572;48.810;9.148;2023-04-24T09:20:22;4.53;;;1.53;;
28311;SDS011;15572;48.810;9.148;2023-04-24T09:25:18;1.60;;;0.80;;
28311;SDS011;15572;48.810;9.148;2023-04-24T09:30:15;1.40;;;1.20;;
28311;SDS011;15572;48.810;9.148;2023-04-24T09:35:18;1.97;;;1.40;;
28311;SDS011;15572;48.810;9.148;2023-04-24T09:40:17;1.80;;;1.50;;
28311;SDS011;15572;48.810;9.148;2023-04-24T09:45:14;2.57;;;1.50;;
28311;SDS011;15572;48.810;9.148;2023-04-24T09:50:12;2.57;;;1.33;;
28311;SDS011;15572;48.810;9.148;2023-04-24T09:55:10;2.43;;;1.40;;
28311;SDS011;15572;48.810;9.148;2023-04-24T10:00:09;0.87;;;0.87;;
28311;SDS011;15572;48.810;9.148;2023-04-24T10:05:08;2.80;;;1.30;;
28311;SDS011;15572;48.810;9.148;2023-04-24T10:10:07;0.83;;;0.83;;
28311;SDS011;15572;48.810;9.148;2023-04-24T10:15:06;2.50;;;1.33;;
28311;SDS011;15572;48.810;9.148;2023-04-24T10:20:06;1.27;;;1.17;;
28311;SDS011;15572;48.810;9.148;2023-04-24T10:25:04;1.30;;;1.07;;
28311;SDS011;15572;48.810;9.148;2023-04-24T10:30:02;1.03;;;0.93;;
28311;SDS011;15572;48.810;9.148;2023-04-24T10:34:59;1.20;;;1.03;;
28311;SDS011;15572;48.810;9.148;2023-04-24T10:39:57;0.90;;;0.90;;
28311;SDS011;15572;48.810;9.148;2023-04-24T10:44:54;1.00;;;1.00;;
28311;SDS011;15572;48.810;9.148;2023-04-24T10:49:51;4.80;;;1.50;;
28311;SDS011;15572;48.810;9.148;2023-04-24T10:54:47;1.47;;;1.30;;
28311;SDS011;15572;48.810;9.148;2023-04-24T10:59:46;1.20;;;1.10;;
28311;SDS011;15572;48.810;9.148;2023-04-24T11:04:43;1.83;;;1.57;;
28311;SDS011;15572;48.810;9.148;2023-04-24T11:09:41;1.20;;;1.10;;
28311;SDS011;15572;48.810;9.148;2023-04-24T11:20:07;1.43;;;1.33;;
28311;SDS011;15572;48.810;9.148;2023-04-24T11:25:05;1.20;;;1.10;;
28311;SDS011;15572;48.810;9.148;2023-04-24T11:30:04;2.60;;;1.70;;
28311;SDS011;15572;48.810;9.148;2023-04-24T11:35:03;1.73;;;1.47;;
28311;SDS011;15572;48.810;9.148;2023-04-24T11:40:02;1.33;;;1.23;;
28311;SDS011;15572;48.810;9.148;2023-04-24T11:45:01;2.07;;;1.40;;
28311;SDS011;15572;48.810;9.148;2023-04-24T11:50:05;1.57;;;1.30;;
28311;SDS011;15572;48.810;9.148;2023-04-24T11:55:03;1.83;;;1.20;;
28311;SDS011;15572;48.810;9.148;2023-04-24T12:00:00;1.60;;;1.33;;
28311;SDS011;15572;48.810;9.148;2023-04-24T12:04:57;3.10;;;1.40;;
28311;SDS011;15572;48.810;9.148;2023-04-24T12:09:58;3.10;;;1.53;;
28311;SDS011;15572;48.810;9.148;2023-04-24T12:14:56;1.57;;;1.40;;
28311;SDS011;15572;48.810;9.148;2023-04-24T12:19:56;2.80;;;1.53;;
28311;SDS011;15572;48.810;9.148;2023-04-24T12:24:59;1.93;;;1.37;;
28311;SDS011;15572;48.810;9.148;2023-04-24T12:29:57;1.93;;;1.47;;
28311;SDS011;15572;48.810;9.148;2023-04-24T12:34:55;2.67;;;1.33;;
28311;SDS011;15572;48.810;9.148;2023-04-24T12:39:59;2.57;;;1.63;;
28311;SDS011;15572;48.810;9.148;2023-04-24T12:45:02;1.67;;;1.40;;
28311;SDS011;15572;48.810;9.148;2023-04-24T12:50:00;1.80;;;1.10;;
28311;SDS011;15572;48.810;9.148;2023-04-24T12:54:58;2.17;;;1.70;;
28311;SDS011;15572;48.810;9.148;2023-04-24T12:59:57;1.83;;;1.20;;
28311;SDS011;15572;48.810;9.148;2023-04-24T13:04:54;1.60;;;1.50;;
28311;SDS011;15572;48.810;9.148;2023-04-24T13:09:51;2.33;;;1.93;;
28311;SDS011;15572;48.810;9.148;2023-04-24T13:14:49;1.60;;;1.50;;
28311;SDS011;15572;48.810;9.148;2023-04-24T13:19:45;2.20;;;1.70;;
28311;SDS011;15572;48.810;9.148;2023-04-24T13:24:42;1.80;;;1.70;;
28311;SDS011;15572;48.810;9.148;2023-04-24T13:29:38;3.57;;;2.13;;
28311;SDS011;15572;48.810;9.148;2023-04-24T13:34:36;1.87;;;1.63;;
28311;SDS011;15572;48.810;9.148;2023-04-24T13:39:33;1.40;;;1.30;;
28311;SDS011;15572;48.810;9.148;2023-04-24T13:44:30;1.77;;;1.67;;
28311;SDS011;15572;48.810;9.148;2023-04-24T13:49:26;1.63;;;1.53;;
28311;SDS011;15572;48.810;9.148;2023-04-24T13:54:24;2.90;;;1.90;;
28311;SDS011;15572;48.810;9.148;2023-04-24T13:59:21;1.60;;;1.07;;
28311;SDS011;15572;48.810;9.148;2023-04-24T14:04:17;1.33;;;1.03;;
28311;SDS011;15572;48.810;9.148;2023-04-24T14:09:14;1.43;;;1.20;;
28311;SDS011;15572;48.810;9.148;2023-04-24T14:14:12;1.97;;;1.60;;
28311;SDS011;15572;48.810;9.148;2023-04-24T14:19:08;2.23;;;1.40;;
28311;SDS011;15572;48.810;9.148;2023-04-24T14:24:05;2.30;;;1.50;;
28311;SDS011;15572;48.810;9.148;2023-04-24T14:29:01;0.90;;;0.80;;
28311;SDS011;15572;48.810;9.148;2023-04-24T14:33:59;1.80;;;1.70;;
28311;SDS011;15572;48.810;9.148;2023-04-24T14:38:56;1.53;;;1.27;;
28311;SDS011;15572;48.810;9.148;2023-04-24T14:43:52;2.20;;;1.57;;
28311;SDS011;15572;48.810;9.148;2023-04-24T14:48:49;2.63;;;1.67;;
28311;SDS011;15572;48.810;9.148;2023-04-24T14:53:46;1.67;;;1.50;;
28311;SDS011;15572;48.810;9.148;2023-04-24T14:58:43;3.83;;;1.50;;
28311;SDS011;15572;48.810;9.148;2023-04-24T15:03:39;2.40;;;1.90;;
28311;SDS011;15572;48.810;9.148;2023-04-24T15:08:36;1.87;;;1.67;;
28311;SDS011;15572;48.810;9.148;2023-04-24T15:13:34;1.47;;;1.17;;
28311;SDS011;15572;48.810;9.148;2023-04-24T15:18:30;1.83;;;1.63;;
28311;SDS011;15572;48.810;9.148;2023-04-24T15:23:27;2.47;;;1.80;;
28311;SDS011;15572;48.810;9.148;2023-04-24T15:28:24;2.57;;;1.60;;
28311;SDS011;15572;48.810;9.148;2023-04-24T15:33:22;2.87;;;2.57;;
28311;SDS011;15572;48.810;9.148;2023-04-24T15:38:19;3.07;;;2.10;;
28311;SDS011;15572;48.810;9.148;2023-04-24T15:43:15;2.83;;;2.00;;
28311;SDS011;15572;48.810;9.148;2023-04-24T15:48:12;2.37;;;2.00;;
28311;SDS011;15572;48.810;9.148;2023-04-24T15:53:10;3.97;;;2.00;;
28311;SDS011;15572;48.810;9.148;2023-04-24T15:58:06;3.30;;;1.67;;
28311;SDS011;15572;48.810;9.148;2023-04-24T16:03:03;2.50;;;1.80;;
28311;SDS011;15572;48.810;9.148;2023-04-24T16:07:59;2.10;;;1.90;;
28311;SDS011;15572;48.810;9.148;2023-04-24T16:12:57;2.03;;;1.83;;
28311;SDS011;15572;48.810;9.148;2023-04-24T16:17:55;1.60;;;1.50;;
28311;SDS011;15572;48.810;9.148;2023-04-24T16:22:52;3.13;;;1.80;;
28311;SDS011;15572;48.810;9.148;2023-04-24T16:27:49;1.70;;;1.60;;
28311;SDS011;15572;48.810;9.148;2023-04-24T16:32:48;3.90;;;1.80;;
28311;SDS011;15572;48.810;9.148;2023-04-24T16:37:44;3.10;;;1.70;;
28311;SDS011;15572;48.810;9.148;2023-04-24T16:42:41;2.13;;;1.80;;
28311;SDS011;15572;48.810;9.148;2023-04-24T16:47:37;1.77;;;1.63;;
28311;SDS011;15572;48.810;9.148;2023-04-24T16:52:36;2.00;;;1.80;;
28311;SDS011;15572;48.810;9.148;2023-04-24T16:57:33;1.93;;;1.50;;
28311;SDS011;15572;48.810;9.148;2023-04-24T17:02:29;1.97;;;1.60;;
28311;SDS011;15572;48.810;9.148;2023-04-24T17:07:26;2.47;;;1.50;;
28311;SDS011;15572;48.810;9.148;2023-04-24T17:12:23;2.47;;;1.40;;
28311;SDS011;15572;48.810;9.148;2023-04-24T17:17:20;3.43;;;1.63;;
28311;SDS011;15572;48.810;9.148;2023-04-24T17:22:17;1.33;;;1.23;;
28311;SDS011;15572;48.810;9.148;2023-04-24T17:27:14;1.03;;;0.97;;
28311;SDS011;15572;48.810;9.148;2023-04-24T17:32:12;1.43;;;1.33;;
28311;SDS011;15572;48.810;9.148;2023-04-24T17:37:08;2.20;;;1.20;;
28311;SDS011;15572;48.810;9.148;2023-04-24T17:42:05;1.20;;;1.10;;
28311;SDS011;15572;48.810;9.148;2023-04-24T17:47:01;2.73;;;1.30;;
28311;SDS011;15572;48.810;9.148;2023-04-24T17:52:00;1.83;;;1.40;;
28311;SDS011;15572;48.810;9.148;2023-04-24T17:56:56;1.70;;;1.30;;
28311;SDS011;15572;48.810;9.148;2023-04-24T18:01:53;2.00;;;1.30;;
28311;SDS011;15572;48.810;9.148;2023-04-24T18:06:49;2.37;;;1.50;;
28311;SDS011;15572;48.810;9.148;2023-04-24T18:11:47;1.67;;;1.57;;
28311;SDS011;15572;48.810;9.148;2023-04-24T18:16:44;2.10;;;1.80;;
28311;SDS011;15572;48.810;9.148;2023-04-24T18:21:40;1.83;;;1.53;;
28311;SDS011;15572;48.810;9.148;2023-04-24T18:26:37;3.37;;;1.40;;
28311;SDS011;15572;48.810;9.148;2023-04-24T18:31:34;2.00;;;1.30;;
28311;SDS011;15572;48.810;9.148;2023-04-24T18:36:31;4.43;;;1.67;;
28311;SDS011;15572;48.810;9.148;2023-04-24T18:41:27;1.93;;;1.60;;
28311;SDS011;15572;48.810;9.148;2023-04-24T18:46:24;2.87;;;1.70;;
28311;SDS011;15572;48.810;9.148;2023-04-24T18:51:22;3.70;;;1.70;;
28311;SDS011;15572;48.810;9.148;2023-04-24T18:56:19;2.67;;;1.80;;
28311;SDS011;15572;48.810;9.148;2023-04-24T19:01:15;2.27;;;1.90;;
28311;SDS011;15572;48.810;9.148;2023-04-24T19:06:11;2.63;;;2.00;;
28311;SDS011;15572;48.810;9.148;2023-04-24T19:11:09;3.70;;;2.10;;
28311;SDS011;15572;48.810;9.148;2023-04-24T19:16:06;2.60;;;1.90;;
28311;SDS011;15572;48.810;9.148;2023-04-24T19:21:03;3.03;;;1.80;;
28311;SDS011;15572;48.810;9.148;2023-04-24T19:25:59;2.93;;;1.80;;
28311;SDS011;15572;48.810;9.148;2023-04-24T19:30:57;3.07;;;1.80;;
28311;SDS011;15572;48.810;9.148;2023-04-24T19:35:54;3.00;;;2.20;;
28311;SDS011;15572;48.810;9.148;2023-04-24T19:40:51;4.53;;;2.03;;
28311;SDS011;15572;48.810;9.148;2023-04-24T19:45:47;3.43;;;2.03;;
28311;SDS011;15572;48.810;9.148;2023-04-24T19:50:46;2.57;;;1.67;;
28311;SDS011;15572;48.810;9.148;2023-04-24T19:55:42;2.23;;;2.03;;
28311;SDS011;15572;48.810;9.148;2023-04-24T20:00:39;2.00;;;1.67;;
28311;SDS011;15572;48.810;9.148;2023-04-24T20:05:35;2.77;;;2.10;;
28311;SDS011;15572;48.810;9.148;2023-04-24T20:10:33;3.10;;;2.20;;
28311;SDS011;15572;48.810;9.148;2023-04-24T20:15:31;2.50;;;1.87;;
28311;SDS011;15572;48.810;9.148;2023-04-24T20:20:27;2.60;;;2.10;;
28311;SDS011;15572;48.810;9.148;2023-04-24T20:25:24;4.00;;;2.17;;
28311;SDS011;15572;48.810;9.148;2023-04-24T20:30:22;3.03;;;2.10;;
28311;SDS011;15572;48.810;9.148;2023-04-24T20:35:19;2.93;;;2.10;;
28311;SDS011;15572;48.810;9.148;2023-04-24T20:40:15;2.53;;;2.33;;
28311;SDS011;15572;48.810;9.148;2023-04-24T20:45:13;3.33;;;2.20;;
28311;SDS011;15572;48.810;9.148;2023-04-24T20:50:13;2.70;;;1.93;;
28311;SDS011;15572;48.810;9.148;2023-04-24T20:55:09;2.70;;;2.30;;
28311;SDS011;15572;48.810;9.148;2023-04-24T21:00:06;2.27;;;2.07;;
28311;SDS011;15572;48.810;9.148;2023-04-24T21:05:05;2.37;;;2.17;;
28311;SDS011;15572;48.810;9.148;2023-04-24T21:10:03;4.40;;;2.37;;
28311;SDS011;15572;48.810;9.148;2023-04-24T21:15:00;2.67;;;2.10;;
28311;SDS011;15572;48.810;9.148;2023-04-24T21:19:57;3.13;;;2.20;;
28311;SDS011;15572;48.810;9.148;2023-04-24T21:24:54;4.50;;;2.20;;
28311;SDS011;15572;48.810;9.148;2023-04-24T21:29:52;3.70;;;2.50;;
28311;SDS011;15572;48.810;9.148;2023-04-24T21:34:49;2.50;;;2.30;;
28311;SDS011;15572;48.810;9.148;2023-04-24T21:39:46;2.87;;;2.47;;
28311;SDS011;15572;48.810;9.148;2023-04-24T21:44:42;3.70;;;2.60;;
28311;SDS011;15572;48.810;9.148;2023-04-24T21:49:40;2.73;;;2.47;;
28311;SDS011;15572;48.810;9.148;2023-04-24T21:54:36;9.33;;;5.80;;
28311;SDS011;15572;48.810;9.148;2023-04-24T21:59:33;7.10;;;4.60;;
28311;SDS011;15572;48.810;9.148;2023-04-24T22:04:29;5.33;;;3.63;;
28311;SDS011;15572;48.810;9.148;2023-04-24T22:09:28;4.53;;;3.53;;
28311;SDS011;15572;48.810;9.148;2023-04-24T22:14:25;5.23;;;3.60;;
28311;SDS011;15572;48.810;9.148;2023-04-24T22:19:24;4.37;;;3.30;;
28311;SDS011;15572;48.810;9.148;2023-04-24T22:24:22;4.17;;;2.80;;
28311;SDS011;15572;48.810;9.148;2023-04-24T22:29:20;5.83;;;3.90;;
28311;SDS011;15572;48.810;9.148;2023-04-24T22:34:16;5.30;;;3.83;;
28311;SDS011;15572;48.810;9.148;2023-04-24T22:39:13;5.73;;;3.90;;
28311;SDS011;15572;48.810;9.148;2023-04-24T22:44:11;6.37;;;3.87;;
28311;SDS011;15572;48.810;9.148;2023-04-24T22:49:09;5.77;;;4.37;;
28311;SDS011;15572;48.810;9.148;2023-04-24T22:54:06;5.20;;;3.90;;
28311;SDS011;15572;48.810;9.148;2023-04-24T22:59:02;6.77;;;3.80;;
28311;SDS011;15572;48.810;9.148;2023-04-24T23:04:00;4.40;;;3.57;;
28311;SDS011;15572;48.810;9.148;2023-04-24T23:08:58;3.87;;;3.40;;
28311;SDS011;15572;48.810;9.148;2023-04-24T23:13:54;4.57;;;3.30;;
28311;SDS011;15572;48.810;9.148;2023-04-24T23:18:51;3.10;;;2.60;;
28311;SDS011;15572;48.810;9.148;2023-04-24T23:23:47;4.30;;;2.40;;
28311;SDS011;15572;48.810;9.148;2023-04-24T23:28:48;2.90;;;1.73;;
28311;SDS011;15572;48.810;9.148;2023-04-24T23:33:44;2.27;;;1.87;;
28311;SDS011;15572;48.810;9.148;2023-04-24T23:38:41;2.40;;;1.77;;
28311;SDS011;15572;48.810;9.148;2023-04-24T23:43:37;2.17;;;1.57;;
28311;SDS011;15572;48.810;9.148;2023-04-24T23:48:35;1.80;;;1.70;;
28311;SDS011;15572;48.810;9.148;2023-04-24T23:53:32;2.23;;;1.47;;
28311;SDS011;15572;48.810;9.148;2023-04-24T23:58:28;3.80;;;1.90;;
